createdAt,value
2018-02-01T00:00:13.527Z,5.50
2018-02-01T00:02:41.043Z,5.50
2018-02-01T00:05:08.545Z,5.50
2018-02-01T00:07:36.043Z,5.50
2018-02-01T00:10:03.535Z,5.40
2018-02-01T00:12:31.062Z,5.40
2018-02-01T00:14:58.590Z,5.50
2018-02-01T00:17:26.093Z,5.50
2018-02-01T00:19:53.761Z,5.50
2018-02-01T00:25:32.213Z,5.30
2018-02-01T00:28:00.469Z,4.70
2018-02-01T00:30:27.972Z,4.70
2018-02-01T00:32:55.443Z,4.60
2018-02-01T00:35:22.891Z,4.60
2018-02-01T00:37:50.439Z,4.50
2018-02-01T00:40:17.900Z,4.50
2018-02-01T00:42:45.359Z,4.40
2018-02-01T00:45:12.792Z,4.30
2018-02-01T00:47:40.254Z,4.30
2018-02-01T00:50:08.498Z,4.20
2018-02-01T00:52:39.898Z,4.20
2018-02-01T00:55:07.410Z,4.20
2018-02-01T00:57:34.907Z,4.10
2018-02-01T01:00:03.110Z,4.00
2018-02-01T01:02:30.589Z,4.00
2018-02-01T01:04:58.229Z,4.00
2018-02-01T01:07:25.744Z,4.00
2018-02-01T01:09:53.212Z,4.00
2018-02-01T01:12:20.673Z,4.00
2018-02-01T01:14:48.298Z,4.00
2018-02-01T01:17:15.784Z,4.00
2018-02-01T01:19:43.264Z,4.00
2018-02-01T01:22:11.520Z,4.00
2018-02-01T01:24:39.677Z,4.00
2018-02-01T01:27:07.137Z,4.00
2018-02-01T01:29:34.609Z,4.00
2018-02-01T01:32:02.096Z,4.10
2018-02-01T01:34:29.567Z,4.10
2018-02-01T01:36:57.040Z,4.10
2018-02-01T01:39:25.307Z,4.10
2018-02-01T01:41:52.824Z,4.10
2018-02-01T01:44:20.404Z,4.10
2018-02-01T01:46:47.919Z,4.20
2018-02-01T01:49:15.814Z,4.10
2018-02-01T01:51:43.322Z,4.10
2018-02-01T01:54:10.816Z,4.20
2018-02-01T01:56:38.887Z,4.20
2018-02-01T01:59:06.356Z,4.20
2018-02-01T02:01:33.823Z,4.20
2018-02-01T02:04:01.269Z,4.20
2018-02-01T02:06:28.860Z,4.20
2018-02-01T02:08:56.367Z,4.20
2018-02-01T02:11:23.827Z,4.20
2018-02-01T02:13:51.271Z,4.20
2018-02-01T02:16:18.877Z,4.20
2018-02-01T02:18:46.335Z,4.20
2018-02-01T02:21:13.810Z,4.20
2018-02-01T02:23:41.967Z,4.30
2018-02-01T02:26:09.424Z,4.30
2018-02-01T02:28:36.864Z,4.20
2018-02-01T02:31:04.399Z,4.20
2018-02-01T02:33:31.859Z,4.20
2018-02-01T02:35:59.324Z,4.20
2018-02-01T02:38:26.757Z,4.20
2018-02-01T02:40:54.220Z,4.20
2018-02-01T02:43:21.693Z,4.20
2018-02-01T02:45:49.163Z,4.20
2018-02-01T02:48:16.610Z,4.20
2018-02-01T02:50:44.088Z,4.30
2018-02-01T02:53:11.531Z,4.30
2018-02-01T02:55:38.981Z,4.30
2018-02-01T02:58:06.435Z,4.40
2018-02-01T03:00:33.894Z,4.40
2018-02-01T03:03:01.350Z,4.30
2018-02-01T03:05:28.817Z,4.40
2018-02-01T03:07:56.375Z,4.40
2018-02-01T03:10:23.879Z,4.40
2018-02-01T03:12:51.366Z,4.30
2018-02-01T03:15:19.614Z,4.40
2018-02-01T03:17:47.094Z,4.40
2018-02-01T03:20:14.567Z,4.40
2018-02-01T03:22:42.026Z,4.40
2018-02-01T03:25:09.487Z,4.30
2018-02-01T03:27:36.945Z,4.30
2018-02-01T03:30:04.425Z,4.30
2018-02-01T03:32:32.653Z,4.30
2018-02-01T03:35:00.181Z,4.30
2018-02-01T03:37:27.622Z,4.30
2018-02-01T03:39:55.089Z,4.30
2018-02-01T03:42:22.549Z,4.30
2018-02-01T03:44:50.011Z,4.30
2018-02-01T03:47:17.470Z,4.30
2018-02-01T03:49:44.953Z,4.30
2018-02-01T03:52:12.409Z,4.30
2018-02-01T03:54:39.869Z,4.30
2018-02-01T03:57:07.349Z,4.30
2018-02-01T03:59:34.880Z,4.30
2018-02-01T04:02:02.411Z,4.30
2018-02-01T04:04:29.868Z,4.20
2018-02-01T04:06:57.431Z,4.10
2018-02-01T04:09:24.938Z,4.20
2018-02-01T04:11:53.228Z,4.20
2018-02-01T04:14:20.672Z,4.20
2018-02-01T04:16:48.930Z,4.30
2018-02-01T04:19:16.614Z,4.30
2018-02-01T04:21:44.084Z,4.20
2018-02-01T04:24:11.516Z,4.20
2018-02-01T04:26:39.751Z,4.20
2018-02-01T04:29:07.212Z,4.20
2018-02-01T04:31:34.687Z,4.20
2018-02-01T04:34:02.754Z,4.20
2018-02-01T04:36:30.212Z,4.10
2018-02-01T04:38:58.519Z,4.10
2018-02-01T04:41:26.722Z,4.10
2018-02-01T04:43:54.799Z,4.00
2018-02-01T04:46:22.227Z,4.00
2018-02-01T04:48:50.176Z,4.00
2018-02-01T04:51:18.490Z,3.90
2018-02-01T04:53:45.962Z,3.90
2018-02-01T04:56:13.486Z,3.80
2018-02-01T04:58:40.961Z,3.80
2018-02-01T05:01:08.488Z,3.80
2018-02-01T05:03:36.003Z,3.80
2018-02-01T05:06:03.454Z,3.80
2018-02-01T05:08:30.896Z,3.80
2018-02-01T05:10:58.454Z,3.80
2018-02-01T05:13:25.896Z,3.90
2018-02-01T05:15:53.367Z,3.80
2018-02-01T05:18:20.809Z,3.90
2018-02-01T05:20:48.303Z,3.90
2018-02-01T05:23:15.763Z,3.90
2018-02-01T05:25:43.251Z,3.90
2018-02-01T05:28:11.491Z,3.90
2018-02-01T05:30:38.980Z,3.90
2018-02-01T05:33:07.198Z,3.90
2018-02-01T05:35:34.676Z,3.90
2018-02-01T05:38:02.328Z,3.80
2018-02-01T05:40:29.811Z,3.80
2018-02-01T05:42:57.257Z,3.80
2018-02-01T05:45:24.736Z,3.80
2018-02-01T05:47:52.196Z,3.80
2018-02-01T05:50:19.706Z,3.80
2018-02-01T05:52:47.150Z,3.80
2018-02-01T05:55:14.615Z,3.90
2018-02-01T05:57:42.115Z,3.90
2018-02-01T06:00:09.635Z,4.00
2018-02-01T06:02:37.145Z,4.00
2018-02-01T06:05:04.600Z,4.00
2018-02-01T06:07:32.867Z,4.10
2018-02-01T06:10:01.103Z,4.10
2018-02-01T06:12:28.586Z,4.00
2018-02-01T06:14:56.040Z,4.00
2018-02-01T06:17:24.265Z,3.90
2018-02-01T06:19:51.776Z,3.90
2018-02-01T06:22:19.993Z,4.00
2018-02-01T06:24:47.464Z,4.00
2018-02-01T06:27:14.931Z,4.00
2018-02-01T06:39:22.391Z,4.10
2018-02-01T06:41:49.846Z,3.90
2018-02-01T06:44:17.344Z,3.90
2018-02-01T06:46:44.868Z,3.90
2018-02-01T06:49:12.373Z,3.80
2018-02-01T06:51:39.900Z,3.80
2018-02-01T06:54:08.185Z,3.80
2018-02-01T06:56:35.973Z,3.80
2018-02-01T06:59:03.495Z,3.90
2018-02-01T07:01:31.610Z,3.90
2018-02-01T07:03:59.046Z,3.90
2018-02-01T07:06:26.584Z,3.80
2018-02-01T07:08:54.035Z,3.90
2018-02-01T07:11:22.300Z,3.90
2018-02-01T07:13:49.818Z,3.90
2018-02-01T07:16:17.268Z,3.80
2018-02-01T07:18:44.732Z,3.80
2018-02-01T07:21:12.693Z,3.80
2018-02-01T07:23:40.162Z,3.90
2018-02-01T07:26:07.608Z,3.90
2018-02-01T07:28:35.088Z,3.80
2018-02-01T07:31:02.617Z,3.90
2018-02-01T07:33:30.073Z,3.80
2018-02-01T07:35:57.549Z,3.80
2018-02-01T07:38:25.019Z,3.80
2018-02-01T07:40:52.531Z,3.80
2018-02-01T07:43:19.962Z,4.00
2018-02-01T07:45:53.012Z,4.10
2018-02-01T07:48:20.505Z,4.00
2018-02-01T07:50:48.751Z,4.00
2018-02-01T07:53:16.613Z,4.00
2018-02-01T07:55:44.160Z,4.00
2018-02-01T07:58:11.619Z,3.90
2018-02-01T08:00:39.134Z,3.90
2018-02-01T08:03:06.596Z,3.90
2018-02-01T08:05:34.128Z,3.90
2018-02-01T08:08:02.446Z,4.10
2018-02-01T08:10:29.946Z,4.10
2018-02-01T08:12:57.409Z,4.30
2018-02-01T08:15:24.844Z,4.70
2018-02-01T08:17:52.291Z,5.20
2018-02-01T08:20:19.747Z,5.40
2018-02-01T08:22:47.232Z,5.40
2018-02-01T08:25:15.508Z,5.10
2018-02-01T08:27:42.966Z,5.00
2018-02-01T08:30:11.202Z,5.50
2018-02-01T08:32:38.641Z,5.40
2018-02-01T08:35:06.106Z,5.90
2018-02-01T08:37:33.578Z,6.00
2018-02-01T08:40:01.031Z,6.20
2018-02-01T08:42:28.488Z,6.20
2018-02-01T08:44:55.929Z,6.30
2018-02-01T08:47:23.388Z,6.00
2018-02-01T08:49:50.864Z,5.90
2018-02-01T08:52:18.296Z,5.90
2018-02-01T08:54:45.768Z,5.90
2018-02-01T08:57:13.270Z,6.00
2018-02-01T08:59:41.484Z,6.30
2018-02-01T09:02:08.947Z,6.40
2018-02-01T09:04:36.493Z,6.40
2018-02-01T09:07:03.951Z,6.20
2018-02-01T09:09:31.409Z,6.20
2018-02-01T09:11:58.871Z,5.90
2018-02-01T09:14:27.044Z,5.60
2018-02-01T09:16:54.517Z,5.40
2018-02-01T09:19:22.081Z,5.50
2018-02-01T09:21:49.535Z,5.60
2018-02-01T09:24:17.016Z,5.60
2018-02-01T09:26:44.480Z,5.70
2018-02-01T09:29:12.718Z,6.00
2018-02-01T09:31:40.153Z,6.00
2018-02-01T09:34:07.627Z,6.00
2018-02-01T09:36:35.082Z,5.80
2018-02-01T09:39:03.314Z,5.50
2018-02-01T09:41:30.758Z,5.50
2018-02-01T09:43:58.996Z,5.60
2018-02-01T09:46:26.457Z,5.60
2018-02-01T09:48:53.907Z,6.00
2018-02-01T09:51:21.368Z,5.70
2018-02-01T09:53:48.819Z,5.50
2018-02-01T09:56:16.321Z,5.50
2018-02-01T09:58:43.758Z,5.40
2018-02-01T10:01:11.999Z,5.40
2018-02-01T10:03:39.473Z,5.40
2018-02-01T10:06:06.933Z,5.40
2018-02-01T10:08:34.396Z,5.50
2018-02-01T10:11:01.867Z,5.30
2018-02-01T10:13:29.299Z,5.20
2018-02-01T10:15:56.843Z,5.20
2018-02-01T10:18:24.352Z,5.40
2018-02-01T10:20:51.835Z,5.70
2018-02-01T10:23:19.266Z,5.80
2018-02-01T10:25:46.715Z,5.70
2018-02-01T10:28:14.198Z,5.60
2018-02-01T10:30:41.831Z,5.40
2018-02-01T10:33:09.293Z,5.60
2018-02-01T10:35:36.750Z,5.70
2018-02-01T10:38:04.229Z,5.70
2018-02-01T10:40:31.686Z,5.50
2018-02-01T10:42:59.209Z,5.50
2018-02-01T10:45:26.647Z,5.50
2018-02-01T10:47:54.912Z,6.50
2018-02-01T10:50:22.374Z,6.40
2018-02-01T10:52:50.231Z,6.80
2018-02-01T10:55:18.621Z,7.40
2018-02-01T10:57:46.928Z,7.40
2018-02-01T11:00:14.473Z,7.30
2018-02-01T11:02:42.639Z,6.30
2018-02-01T11:05:10.868Z,6.10
2018-02-01T11:07:38.346Z,6.10
2018-02-01T11:10:05.810Z,6.00
2018-02-01T11:12:33.371Z,5.90
2018-02-01T11:15:00.877Z,5.90
2018-02-01T11:17:28.331Z,5.90
2018-02-01T11:19:55.774Z,6.00
2018-02-01T11:22:23.260Z,6.00
2018-02-01T11:24:51.643Z,5.80
2018-02-01T11:27:23.218Z,5.80
2018-02-01T11:29:50.651Z,5.80
2018-02-01T11:32:18.151Z,5.80
2018-02-01T11:34:46.401Z,5.90
2018-02-01T11:37:13.860Z,5.90
2018-02-01T11:39:41.350Z,5.90
2018-02-01T11:42:09.580Z,5.90
2018-02-01T11:44:37.013Z,5.80
2018-02-01T11:47:04.550Z,5.90
2018-02-01T11:49:32.094Z,5.90
2018-02-01T11:51:59.539Z,5.90
2018-02-01T11:54:27.756Z,6.90
2018-02-01T11:56:55.207Z,6.90
2018-02-01T11:59:22.674Z,7.50
2018-02-01T12:01:50.290Z,7.10
2018-02-01T12:04:18.534Z,6.50
2018-02-01T12:06:46.036Z,6.50
2018-02-01T12:09:13.559Z,6.40
2018-02-01T12:11:41.898Z,6.20
2018-02-01T12:14:09.331Z,6.30
2018-02-01T12:16:37.391Z,6.70
2018-02-01T12:19:04.851Z,7.00
2018-02-01T12:21:32.451Z,7.50
2018-02-01T12:24:00.235Z,7.30
2018-02-01T12:26:27.713Z,7.00
2018-02-01T12:28:55.192Z,6.60
2018-02-01T12:31:22.662Z,6.60
2018-02-01T12:33:50.121Z,6.60
2018-02-01T12:36:17.565Z,6.70
2018-02-01T12:38:45.019Z,6.70
2018-02-01T12:41:12.482Z,6.60
2018-02-01T12:43:39.955Z,6.40
2018-02-01T12:46:07.424Z,6.30
2018-02-01T12:48:34.897Z,6.30
2018-02-01T12:51:02.497Z,6.40
2018-02-01T12:53:29.972Z,6.40
2018-02-01T12:55:57.439Z,6.30
2018-02-01T12:58:25.642Z,6.40
2018-02-01T13:00:53.108Z,6.40
2018-02-01T13:03:20.541Z,6.30
2018-02-01T13:05:47.999Z,6.30
2018-02-01T13:08:15.488Z,6.30
2018-02-01T13:10:43.675Z,6.40
2018-02-01T13:13:11.153Z,6.40
2018-02-01T13:15:38.621Z,6.30
2018-02-01T13:18:06.083Z,6.40
2018-02-01T13:20:33.525Z,6.40
2018-02-01T13:23:00.986Z,6.40
2018-02-01T13:25:28.450Z,6.50
2018-02-01T13:27:55.922Z,6.50
2018-02-01T13:30:23.375Z,6.50
2018-02-01T13:32:51.008Z,6.50
2018-02-01T13:35:18.560Z,6.50
2018-02-01T13:37:46.022Z,6.50
2018-02-01T13:40:13.478Z,6.50
2018-02-01T13:42:40.952Z,6.50
2018-02-01T13:45:08.424Z,6.40
2018-02-01T13:47:35.883Z,6.50
2018-02-01T13:50:03.311Z,6.60
2018-02-01T13:52:30.796Z,6.70
2018-02-01T13:54:58.307Z,6.70
2018-02-01T13:57:25.778Z,6.60
2018-02-01T13:59:53.249Z,6.80
2018-02-01T14:02:21.458Z,6.70
2018-02-01T14:04:49.672Z,6.70
2018-02-01T14:07:17.132Z,6.70
2018-02-01T14:09:44.607Z,7.00
2018-02-01T14:12:12.086Z,7.30
2018-02-01T14:14:39.547Z,7.50
2018-02-01T14:17:07.012Z,7.50
2018-02-01T14:19:34.451Z,7.60
2018-02-01T14:22:02.556Z,7.40
2018-02-01T14:24:30.012Z,7.10
2018-02-01T14:26:57.446Z,6.90
2018-02-01T14:29:25.022Z,6.60
2018-02-01T14:31:53.228Z,6.60
2018-02-01T14:34:20.680Z,6.50
2018-02-01T14:36:48.155Z,6.50
2018-02-01T14:39:15.579Z,6.40
2018-02-01T14:41:43.044Z,6.50
2018-02-01T14:44:10.526Z,6.50
2018-02-01T14:46:38.031Z,6.50
2018-02-01T14:49:05.480Z,6.30
2018-02-01T14:51:33.706Z,6.30
2018-02-01T14:54:01.160Z,6.30
2018-02-01T14:56:28.624Z,6.20
2018-02-01T14:58:59.727Z,6.00
2018-02-01T15:01:27.207Z,6.10
2018-02-01T15:03:54.659Z,6.10
2018-02-01T15:06:22.988Z,6.10
2018-02-01T15:08:51.206Z,6.20
2018-02-01T15:11:18.820Z,6.10
2018-02-01T15:13:46.883Z,6.20
2018-02-01T15:16:14.343Z,6.10
2018-02-01T15:18:42.597Z,6.00
2018-02-01T15:21:10.048Z,6.00
2018-02-01T15:23:37.566Z,5.60
2018-02-01T15:26:05.051Z,5.40
2018-02-01T15:28:32.516Z,5.30
2018-02-01T15:30:59.986Z,5.30
2018-02-01T15:33:27.464Z,5.30
2018-02-01T15:35:54.948Z,5.30
2018-02-01T15:38:22.442Z,5.20
2018-02-01T15:40:49.921Z,5.30
2018-02-01T15:43:17.387Z,5.20
2018-02-01T15:45:45.622Z,5.30
2018-02-01T15:48:13.115Z,5.30
2018-02-01T15:50:40.582Z,5.30
2018-02-01T15:53:08.844Z,5.20
2018-02-01T15:55:36.308Z,5.20
2018-02-01T15:58:04.521Z,5.00
2018-02-01T16:00:32.078Z,5.00
2018-02-01T16:02:59.560Z,5.00
2018-02-01T16:05:27.065Z,5.00
2018-02-01T16:07:55.286Z,5.00
2018-02-01T16:10:23.639Z,5.00
2018-02-01T16:12:51.088Z,5.00
2018-02-01T16:15:18.552Z,5.00
2018-02-01T16:17:46.030Z,5.00
2018-02-01T16:20:13.536Z,5.10
2018-02-01T16:22:41.807Z,5.10
2018-02-01T16:25:09.268Z,5.10
2018-02-01T16:27:37.532Z,5.20
2018-02-01T16:30:05.026Z,5.10
2018-02-01T16:32:32.529Z,5.20
2018-02-01T16:34:59.970Z,5.20
2018-02-01T16:37:27.426Z,5.20
2018-02-01T16:39:55.646Z,5.20
2018-02-01T16:42:23.161Z,5.20
2018-02-01T16:44:50.594Z,5.20
2018-02-01T16:47:18.036Z,5.20
2018-02-01T16:49:45.538Z,5.30
2018-02-01T16:52:13.116Z,5.30
2018-02-01T16:54:40.621Z,5.30
2018-02-01T16:57:08.090Z,5.30
2018-02-01T16:59:35.653Z,5.30
2018-02-01T17:02:03.097Z,5.30
2018-02-01T17:04:30.559Z,5.30
2018-02-01T17:06:57.986Z,5.30
2018-02-01T17:09:25.477Z,5.30
2018-02-01T17:11:52.932Z,5.30
2018-02-01T17:14:20.535Z,5.40
2018-02-01T17:16:48.747Z,5.30
2018-02-01T17:19:16.217Z,5.30
2018-02-01T17:21:43.703Z,5.20
2018-02-01T17:24:11.143Z,5.30
2018-02-01T17:26:38.637Z,5.20
2018-02-01T17:29:06.877Z,5.30
2018-02-01T17:31:38.325Z,5.20
2018-02-01T17:34:05.779Z,5.20
2018-02-01T17:36:33.278Z,5.10
2018-02-01T17:39:00.737Z,5.10
2018-02-01T17:41:28.256Z,5.00
2018-02-01T17:43:55.734Z,5.00
2018-02-01T17:46:24.061Z,5.00
2018-02-01T17:48:52.228Z,5.00
2018-02-01T17:51:20.438Z,5.00
2018-02-01T17:53:48.711Z,4.90
2018-02-01T17:56:16.154Z,5.00
2018-02-01T17:58:43.631Z,5.00
2018-02-01T18:01:11.129Z,4.90
2018-02-01T18:03:38.614Z,4.90
2018-02-01T18:06:06.052Z,4.90
2018-02-01T18:08:33.519Z,4.90
2018-02-01T18:11:01.018Z,4.90
2018-02-01T18:13:28.534Z,4.90
2018-02-01T18:15:55.983Z,5.00
2018-02-01T18:18:23.467Z,4.90
2018-02-01T18:20:50.916Z,4.90
2018-02-01T18:23:18.380Z,4.90
2018-02-01T18:25:45.836Z,4.80
2018-02-01T18:28:13.332Z,4.70
2018-02-01T18:30:40.777Z,4.60
2018-02-01T18:33:08.276Z,4.60
2018-02-01T18:35:35.723Z,4.30
2018-02-01T18:38:03.189Z,4.20
2018-02-01T18:40:30.713Z,4.20
2018-02-01T18:42:58.160Z,4.20
2018-02-01T18:45:26.389Z,4.10
2018-02-01T18:47:53.914Z,4.10
2018-02-01T18:50:21.417Z,4.10
2018-02-01T18:52:48.873Z,4.20
2018-02-01T18:55:16.342Z,4.20
2018-02-01T18:57:43.813Z,4.10
2018-02-01T19:00:11.347Z,4.10
2018-02-01T19:02:38.922Z,4.10
2018-02-01T19:05:06.409Z,4.10
2018-02-01T19:07:33.876Z,4.00
2018-02-01T19:10:01.309Z,3.90
2018-02-01T19:12:28.796Z,3.80
2018-02-01T19:14:56.291Z,3.90
2018-02-01T19:17:23.832Z,4.00
2018-02-01T19:19:51.332Z,3.90
2018-02-01T19:22:19.605Z,3.90
2018-02-01T19:24:47.025Z,3.90
2018-02-01T19:27:14.487Z,3.90
2018-02-01T19:29:41.965Z,3.90
2018-02-01T19:32:15.114Z,3.90
2018-02-01T19:34:42.615Z,4.00
2018-02-01T19:37:10.066Z,4.00
2018-02-01T19:39:37.543Z,3.90
2018-02-01T19:42:05.065Z,3.90
2018-02-01T19:44:32.550Z,3.80
2018-02-01T19:47:00.819Z,3.80
2018-02-01T19:49:28.358Z,3.80
2018-02-01T19:51:55.827Z,3.70
2018-02-01T19:54:23.292Z,3.70
2018-02-01T19:56:51.550Z,3.60
2018-02-01T19:59:19.026Z,3.60
2018-02-01T20:01:46.467Z,3.50
2018-02-01T20:04:14.647Z,3.60
2018-02-01T20:06:42.114Z,3.50
2018-02-01T20:09:09.573Z,3.50
2018-02-01T20:11:37.843Z,3.40
2018-02-01T20:14:05.300Z,3.40
2018-02-01T20:16:32.782Z,3.40
2018-02-01T20:19:00.236Z,3.30
2018-02-01T20:21:27.763Z,3.40
2018-02-01T20:23:55.319Z,3.40
2018-02-01T20:26:23.547Z,3.30
2018-02-01T20:28:51.100Z,3.30
2018-02-01T20:31:19.357Z,3.30
2018-02-01T20:33:46.828Z,3.30
2018-02-01T20:36:14.266Z,3.40
2018-02-01T20:38:41.737Z,3.30
2018-02-01T20:41:09.300Z,3.40
2018-02-01T20:43:36.780Z,3.30
2018-02-01T20:46:08.601Z,3.40
2018-02-01T20:48:36.128Z,3.40
2018-02-01T20:51:04.380Z,3.40
2018-02-01T20:53:36.303Z,3.40
2018-02-01T20:56:03.850Z,3.40
2018-02-01T20:58:31.775Z,3.40
2018-02-01T21:00:59.993Z,3.20
2018-02-01T21:03:27.456Z,3.30
2018-02-01T21:05:54.921Z,3.10
2018-02-01T21:08:22.443Z,3.20
2018-02-01T21:10:49.920Z,3.20
2018-02-01T21:13:17.383Z,3.10
2018-02-01T21:15:44.845Z,3.00
2018-02-01T21:18:12.286Z,3.00
2018-02-01T21:20:39.798Z,3.00
2018-02-01T21:23:07.280Z,3.00
2018-02-01T21:25:35.560Z,2.90
2018-02-01T21:28:03.050Z,2.90
2018-02-01T21:30:30.549Z,2.90
2018-02-01T21:32:58.009Z,2.90
2018-02-01T21:35:29.714Z,2.90
2018-02-01T21:37:57.149Z,2.90
2018-02-01T21:40:24.646Z,2.80
2018-02-01T21:42:52.671Z,2.90
2018-02-01T21:45:20.256Z,2.90
2018-02-01T21:47:47.759Z,2.90
2018-02-01T21:50:16.709Z,3.00
2018-02-01T21:52:45.005Z,3.00
2018-02-01T21:55:12.482Z,2.90
2018-02-01T21:57:40.045Z,2.90
2018-02-01T22:00:07.520Z,2.80
2018-02-01T22:02:35.824Z,2.80
2018-02-01T22:05:03.296Z,2.80
2018-02-01T22:07:30.852Z,2.80
2018-02-01T22:09:58.411Z,2.70
2018-02-01T22:12:25.899Z,2.60
2018-02-01T22:14:53.395Z,2.70
2018-02-01T22:17:20.977Z,2.60
2018-02-01T22:19:48.422Z,2.60
2018-02-01T22:22:15.889Z,2.60
2018-02-01T22:24:43.356Z,2.60
2018-02-01T22:27:11.410Z,2.60
2018-02-01T22:29:38.859Z,2.60
2018-02-01T22:32:06.302Z,2.50
2018-02-01T22:34:33.768Z,2.50
2018-02-01T22:37:01.265Z,2.50
2018-02-01T22:39:28.774Z,2.50
2018-02-01T22:41:56.256Z,2.60
2018-02-01T22:44:23.689Z,2.50
2018-02-01T22:46:51.160Z,2.50
2018-02-01T22:49:18.602Z,2.50
2018-02-01T22:51:46.071Z,2.50
2018-02-01T22:54:13.578Z,2.40
2018-02-01T22:56:41.108Z,2.40
2018-02-01T22:59:08.617Z,2.40
2018-02-01T23:01:36.124Z,2.50
2018-02-01T23:04:03.577Z,2.50
2018-02-01T23:06:31.031Z,2.40
2018-02-01T23:08:58.575Z,2.40
2018-02-01T23:11:26.033Z,2.40
2018-02-01T23:13:53.525Z,2.30
2018-02-01T23:16:20.944Z,2.40
2018-02-01T23:18:48.428Z,2.30
2018-02-01T23:21:15.859Z,2.20
2018-02-01T23:23:47.308Z,2.20
2018-02-01T23:26:14.784Z,2.10
2018-02-01T23:28:42.219Z,2.20
2018-02-01T23:31:09.694Z,2.10
2018-02-01T23:33:37.313Z,2.10
2018-02-01T23:36:04.791Z,2.00
2018-02-01T23:38:32.238Z,2.00
2018-02-01T23:40:59.689Z,2.00
2018-02-01T23:43:27.152Z,2.00
2018-02-01T23:45:54.627Z,2.00
2018-02-01T23:48:22.076Z,1.90
2018-02-01T23:50:49.540Z,2.00
2018-02-01T23:53:17.490Z,1.90
2018-02-01T23:55:44.932Z,1.90
2018-02-01T23:58:12.396Z,1.90
